Terminal Aerodrome Forecast
Issued by NWS

Home | Current Version | Previous Version | Text Only | Print | Product List | Glossary On
Versions: 1 2 3 4 5 6 7 8 9 10 11 12 13 14 15 16 17 18
000
FTUS46 KLOX 261500 AAB
TAFSBA
TAF AMD
KSBA 261511Z 2615/2712 00000KT 3SM BR OVC002
     FM261600 14006KT P6SM BKN006
     FM261900 23008KT P6SM SCT010 BKN150
     FM270300 VRB03KT P6SM SCT150
     FM270700 VRB03KT P6SM BKN006
     FM271000 09005KT 3SM BR OVC004=

USA.gov is the U.S. government's official web portal to all federal, state and local government web resources and services.